Аэропорт: Владикавказ (Беслан). Владикавказ

ICAO: URMO

METAR:
2024-04-22 22:00:00
URMO 222200Z VRB01MPS 9999 SCT/// 11/09 Q1021 R09/010070 NOSIG RMK QFE722/0963
TAF:
2024-04-22 20:00:00
TAF URMO 222000Z 2221/2306 12003G08MPS 6000 BKN016 
  TEMPO 2221/2306 0300 FG OVC002